createdAt,value
2019-04-30T00:01:26.450Z,23.45
2019-04-30T00:03:59.659Z,23.67
2019-04-30T00:06:34.575Z,22.07
2019-04-30T00:09:00.100Z,24.63
2019-04-30T00:11:29.296Z,25.15
2019-04-30T00:13:59.074Z,26.02
2019-04-30T00:16:30.886Z,23.98
2019-04-30T00:19:00.949Z,22.37
2019-04-30T00:21:30.242Z,27.48
2019-04-30T00:24:00.738Z,27.10
2019-04-30T00:26:30.601Z,25.27
2019-04-30T00:28:59.890Z,25.83
2019-04-30T00:31:29.072Z,24.82
2019-04-30T00:34:01.405Z,26.87
2019-04-30T00:36:34.095Z,22.83
2019-04-30T00:39:00.448Z,23.95
2019-04-30T00:41:30.301Z,26.40
2019-04-30T00:43:59.566Z,22.70
2019-04-30T00:46:29.512Z,27.82
2019-04-30T00:49:08.824Z,24.02
2019-04-30T00:51:29.761Z,25.60
2019-04-30T00:53:58.940Z,25.35
2019-04-30T00:56:28.416Z,26.50
2019-04-30T00:59:02.064Z,28.15
2019-04-30T01:02:02.392Z,27.45
2019-04-30T01:04:50.739Z,27.95
2019-04-30T01:07:20.476Z,26.93
2019-04-30T01:09:50.074Z,26.60
2019-04-30T01:12:27.682Z,27.82
2019-04-30T01:14:50.503Z,33.60
2019-04-30T01:17:20.239Z,31.00
2019-04-30T01:19:51.131Z,30.10
2019-04-30T01:22:27.779Z,27.27
2019-04-30T01:24:51.859Z,28.47
2019-04-30T01:27:21.213Z,32.03
2019-04-30T01:29:50.359Z,27.77
2019-04-30T01:32:20.929Z,23.38
2019-04-30T01:34:53.882Z,32.28
2019-04-30T01:37:28.689Z,27.27
2019-04-30T01:39:52.399Z,29.25
2019-04-30T01:42:21.689Z,26.97
2019-04-30T01:44:53.837Z,34.10
2019-04-30T01:47:27.893Z,28.25
2019-04-30T01:49:55.895Z,25.88
2019-04-30T01:52:24.068Z,34.15
2019-04-30T01:54:53.323Z,30.10
2019-04-30T01:57:44.264Z,32.33
2019-04-30T02:00:26.735Z,30.50
2019-04-30T02:02:56.073Z,27.35
2019-04-30T02:05:25.266Z,30.25
2019-04-30T02:07:54.470Z,30.35
2019-04-30T02:10:23.662Z,24.55
2019-04-30T02:12:52.886Z,28.95
2019-04-30T02:15:22.245Z,31.60
2019-04-30T02:17:51.415Z,30.57
2019-04-30T02:20:20.668Z,28.12
2019-04-30T02:22:49.888Z,28.17
2019-04-30T02:25:19.551Z,25.45
2019-04-30T02:27:49.040Z,28.25
2019-04-30T02:30:20.796Z,32.45
2019-04-30T02:32:52.445Z,29.65
2019-04-30T02:35:34.563Z,36.95
2019-04-30T02:38:23.254Z,25.87
2019-04-30T02:40:53.478Z,31.53
2019-04-30T02:43:24.668Z,29.82
2019-04-30T02:45:56.251Z,34.25
2019-04-30T02:48:29.475Z,28.62
2019-04-30T02:51:00.767Z,31.73
2019-04-30T02:54:10.006Z,25.57
2019-04-30T02:56:40.261Z,27.50
2019-04-30T02:59:10.364Z,30.43
2019-04-30T03:01:40.453Z,34.30
2019-04-30T03:04:10.247Z,21.90
2019-04-30T03:06:40.246Z,28.85
2019-04-30T03:09:10.556Z,23.05
2019-04-30T03:11:40.701Z,28.90
2019-04-30T03:14:10.826Z,24.50
2019-04-30T03:16:52.462Z,26.37
2019-04-30T03:19:43.164Z,22.37
2019-04-30T03:22:15.618Z,26.50
2019-04-30T03:24:44.874Z,27.32
2019-04-30T03:27:14.070Z,25.45
2019-04-30T03:29:43.301Z,30.05
2019-04-30T03:32:14.103Z,27.55
2019-04-30T03:34:43.606Z,29.53
2019-04-30T03:37:12.789Z,36.05
2019-04-30T03:39:42.051Z,39.53
2019-04-30T03:42:11.285Z,28.50
2019-04-30T03:44:40.509Z,24.63
2019-04-30T03:47:10.907Z,37.53
2019-04-30T03:49:40.514Z,26.03
2019-04-30T03:52:13.123Z,29.80
2019-04-30T03:54:41.029Z,26.87
2019-04-30T03:57:10.878Z,30.32
2019-04-30T03:59:40.236Z,30.02
2019-04-30T04:02:31.846Z,27.17
2019-04-30T04:05:24.376Z,32.03
2019-04-30T04:08:21.599Z,29.35
2019-04-30T04:11:00.725Z,28.80
2019-04-30T04:13:32.994Z,27.42
2019-04-30T04:16:00.905Z,31.50
2019-04-30T04:18:30.298Z,28.02
2019-04-30T04:21:08.693Z,29.90
2019-04-30T04:23:32.785Z,32.37
2019-04-30T04:26:01.652Z,31.87
2019-04-30T04:28:30.866Z,27.37
2019-04-30T04:31:00.379Z,31.50
2019-04-30T04:33:29.785Z,25.80
2019-04-30T04:35:59.779Z,28.12
2019-04-30T04:38:30.385Z,31.65
2019-04-30T04:41:03.025Z,30.50
2019-04-30T04:44:14.772Z,27.52
2019-04-30T04:46:44.208Z,27.65
2019-04-30T04:49:13.425Z,32.37
2019-04-30T04:51:42.733Z,30.95
2019-04-30T04:54:11.905Z,30.62
2019-04-30T04:56:41.110Z,31.20
2019-04-30T04:59:10.501Z,30.72
2019-04-30T05:01:39.730Z,34.45
2019-04-30T05:04:37.212Z,33.92
2019-04-30T05:07:06.406Z,33.53
2019-04-30T05:09:35.629Z,33.13
2019-04-30T05:12:04.820Z,33.28
2019-04-30T05:14:34.058Z,33.25
2019-04-30T05:17:03.301Z,34.27
2019-04-30T05:19:32.497Z,34.33
2019-04-30T05:22:01.694Z,36.77
2019-04-30T05:24:30.895Z,36.68
2019-04-30T05:27:00.133Z,31.05
2019-04-30T05:29:29.327Z,36.48
2019-04-30T05:31:58.621Z,34.78
2019-04-30T05:34:28.828Z,36.33
2019-04-30T05:36:58.475Z,34.75
2019-04-30T05:39:29.043Z,26.50
2019-04-30T05:41:58.954Z,33.23
2019-04-30T05:44:29.868Z,33.65
2019-04-30T05:46:59.296Z,30.23
2019-04-30T05:49:28.836Z,27.13
2019-04-30T05:51:59.361Z,37.00
2019-04-30T05:54:29.149Z,30.90
2019-04-30T05:56:59.411Z,35.92
2019-04-30T05:59:29.032Z,37.10
2019-04-30T06:01:59.264Z,37.67
2019-04-30T06:04:29.450Z,37.97
2019-04-30T06:06:58.779Z,36.05
2019-04-30T06:09:38.606Z,36.40
2019-04-30T06:12:20.109Z,40.20
2019-04-30T06:14:56.246Z,36.38
2019-04-30T06:17:29.312Z,36.33
2019-04-30T06:19:59.104Z,35.70
2019-04-30T06:22:28.944Z,35.70
2019-04-30T06:24:59.468Z,32.93
2019-04-30T06:27:29.288Z,34.00
2019-04-30T06:29:58.562Z,36.83
2019-04-30T06:32:29.432Z,32.50
2019-04-30T06:34:59.289Z,28.70
2019-04-30T06:37:28.857Z,33.45
2019-04-30T06:39:59.434Z,33.28
2019-04-30T06:42:29.335Z,26.70
2019-04-30T06:44:59.105Z,32.88
2019-04-30T06:47:33.027Z,35.63
2019-04-30T06:50:01.359Z,35.88
2019-04-30T06:52:30.906Z,36.30
2019-04-30T06:55:00.298Z,32.40
2019-04-30T06:57:29.608Z,35.23
2019-04-30T06:59:59.581Z,33.25
2019-04-30T07:02:30.826Z,35.48
2019-04-30T07:05:00.175Z,36.42
2019-04-30T07:07:38.451Z,36.48
2019-04-30T07:10:20.506Z,36.68
2019-04-30T07:12:59.910Z,35.05
2019-04-30T07:15:29.652Z,34.83
2019-04-30T07:17:59.195Z,35.20
2019-04-30T07:20:29.169Z,34.13
2019-04-30T07:23:02.813Z,35.30
2019-04-30T07:25:29.427Z,34.67
2019-04-30T07:27:59.801Z,30.90
2019-04-30T07:30:30.838Z,34.95
2019-04-30T07:33:00.295Z,35.55
2019-04-30T07:35:29.701Z,35.60
2019-04-30T07:38:00.635Z,33.13
2019-04-30T07:40:30.259Z,34.15
2019-04-30T07:42:59.476Z,34.30
2019-04-30T07:45:31.595Z,34.25
2019-04-30T07:47:59.892Z,30.25
2019-04-30T07:50:31.304Z,33.67
2019-04-30T07:53:05.701Z,33.73
2019-04-30T07:55:32.353Z,33.43
2019-04-30T07:58:01.636Z,33.88
2019-04-30T08:00:31.262Z,32.70
2019-04-30T08:03:11.197Z,34.57
2019-04-30T08:05:43.348Z,35.20
2019-04-30T08:08:20.814Z,33.70
2019-04-30T08:10:43.437Z,31.90
2019-04-30T08:13:15.174Z,35.13
2019-04-30T08:15:43.698Z,34.17
2019-04-30T08:18:12.923Z,34.18
2019-04-30T08:20:42.137Z,26.37
2019-04-30T08:23:17.020Z,24.90
2019-04-30T08:25:42.391Z,25.60
2019-04-30T08:28:11.748Z,34.07
2019-04-30T08:30:40.948Z,33.85
2019-04-30T08:33:10.260Z,32.00
2019-04-30T08:35:39.858Z,31.85
2019-04-30T08:38:10.813Z,33.75
2019-04-30T08:40:53.130Z,32.48
2019-04-30T08:43:11.043Z,32.28
2019-04-30T08:45:40.259Z,32.48
2019-04-30T08:48:09.527Z,32.75
2019-04-30T08:50:39.545Z,33.15
2019-04-30T08:53:10.864Z,31.82
2019-04-30T08:55:39.914Z,34.45
2019-04-30T08:58:14.799Z,34.78
2019-04-30T09:00:40.429Z,34.18
2019-04-30T09:03:09.630Z,32.83
2019-04-30T09:05:56.231Z,30.75
2019-04-30T09:08:25.570Z,34.45
2019-04-30T09:10:54.839Z,30.35
2019-04-30T09:13:24.072Z,34.90
2019-04-30T09:15:53.615Z,33.35
2019-04-30T09:18:23.352Z,33.13
2019-04-30T09:20:52.741Z,30.97
2019-04-30T09:23:21.953Z,33.40
2019-04-30T09:25:51.191Z,31.97
2019-04-30T09:28:20.386Z,29.50
2019-04-30T09:30:49.665Z,32.45
2019-04-30T09:33:19.442Z,32.48
2019-04-30T09:35:49.617Z,29.57
2019-04-30T09:38:19.506Z,32.08
2019-04-30T09:40:50.768Z,30.95
2019-04-30T09:43:19.754Z,31.27
2019-04-30T09:45:49.757Z,26.45
2019-04-30T09:48:19.262Z,29.30
2019-04-30T09:50:49.703Z,31.85
2019-04-30T09:53:20.098Z,29.70
2019-04-30T09:55:49.768Z,25.97
2019-04-30T09:58:21.048Z,29.07
2019-04-30T10:00:50.441Z,30.17
2019-04-30T10:03:20.893Z,28.30
2019-04-30T10:05:50.577Z,32.38
2019-04-30T10:08:20.899Z,24.85
2019-04-30T10:11:01.592Z,32.15
2019-04-30T10:13:30.882Z,30.03
2019-04-30T10:16:06.947Z,32.40
2019-04-30T10:18:36.132Z,30.50
2019-04-30T10:21:05.415Z,28.87
2019-04-30T10:23:34.644Z,29.60
2019-04-30T10:26:04.146Z,28.38
2019-04-30T10:28:36.356Z,30.00
2019-04-30T10:31:05.520Z,28.20
2019-04-30T10:33:34.696Z,28.30
2019-04-30T10:36:03.901Z,28.15
2019-04-30T10:38:33.110Z,25.37
2019-04-30T10:41:02.388Z,26.52
2019-04-30T10:43:32.011Z,25.48
2019-04-30T10:46:01.442Z,27.02
2019-04-30T10:48:30.639Z,29.82
2019-04-30T10:50:59.853Z,27.45
2019-04-30T10:53:29.239Z,25.10
2019-04-30T10:55:59.466Z,27.60
2019-04-30T10:58:28.704Z,26.73
2019-04-30T11:00:59.563Z,25.30
2019-04-30T11:03:29.189Z,27.45
2019-04-30T11:05:58.661Z,26.82
2019-04-30T11:08:27.862Z,25.88
2019-04-30T11:10:57.143Z,25.95
2019-04-30T11:13:26.417Z,26.70
2019-04-30T11:15:55.596Z,26.90
2019-04-30T11:18:25.282Z,26.73
2019-04-30T11:20:54.747Z,25.37
2019-04-30T11:23:24.156Z,22.93
2019-04-30T11:25:53.889Z,21.50
2019-04-30T11:28:24.021Z,22.23
2019-04-30T11:30:58.506Z,20.33
2019-04-30T11:33:27.802Z,21.97
2019-04-30T11:36:03.000Z,21.77
2019-04-30T11:38:29.851Z,19.60
2019-04-30T11:40:58.845Z,23.22
2019-04-30T11:43:29.460Z,25.45
2019-04-30T11:46:39.523Z,21.27
2019-04-30T11:49:09.654Z,21.70
2019-04-30T11:51:39.314Z,20.77
2019-04-30T11:54:09.020Z,20.93
2019-04-30T11:56:38.436Z,21.83
2019-04-30T11:59:08.692Z,20.87
2019-04-30T12:01:38.486Z,20.07
2019-04-30T12:04:09.360Z,20.57
2019-04-30T12:06:39.458Z,18.40
2019-04-30T12:09:34.155Z,17.23
2019-04-30T12:12:03.513Z,19.03
2019-04-30T12:14:32.726Z,20.87
2019-04-30T12:17:03.065Z,20.57
2019-04-30T12:19:32.352Z,19.93
2019-04-30T12:22:01.585Z,17.80
2019-04-30T12:24:30.762Z,16.20
2019-04-30T12:26:59.979Z,16.10
2019-04-30T12:29:29.318Z,16.80
2019-04-30T12:31:58.503Z,15.57
2019-04-30T12:34:27.776Z,14.33
2019-04-30T12:36:56.985Z,14.23
2019-04-30T12:39:26.209Z,14.40
2019-04-30T12:41:55.479Z,14.87
2019-04-30T12:44:24.688Z,14.03
2019-04-30T12:46:53.936Z,14.57
2019-04-30T12:49:23.101Z,14.47
2019-04-30T12:52:14.429Z,15.67
2019-04-30T12:55:15.158Z,14.33
2019-04-30T12:57:39.509Z,12.07
2019-04-30T13:00:10.991Z,13.50
2019-04-30T13:02:40.183Z,13.50
2019-04-30T13:05:09.932Z,13.03
2019-04-30T13:07:40.426Z,14.60
2019-04-30T13:10:10.616Z,15.03
2019-04-30T13:12:40.647Z,13.70
2019-04-30T13:15:11.665Z,13.47
2019-04-30T13:17:41.024Z,14.47
2019-04-30T13:20:18.840Z,13.73
2019-04-30T13:22:44.170Z,13.77
2019-04-30T13:27:45.473Z,14.60
2019-04-30T13:30:33.347Z,13.67
2019-04-30T13:35:45.582Z,13.40
2019-04-30T13:38:19.707Z,13.20
2019-04-30T13:41:06.523Z,14.85
2019-04-30T13:43:53.279Z,16.57
2019-04-30T13:46:22.703Z,16.48
2019-04-30T13:48:51.931Z,13.63
2019-04-30T13:51:21.183Z,12.50
2019-04-30T13:53:50.435Z,13.57
2019-04-30T13:56:20.233Z,12.40
2019-04-30T13:58:49.608Z,14.13
2019-04-30T14:01:21.447Z,14.40
2019-04-30T14:04:08.913Z,13.40
2019-04-30T14:06:43.019Z,14.97
2019-04-30T14:09:21.962Z,12.70
2019-04-30T14:11:51.174Z,14.23
2019-04-30T14:14:20.435Z,14.00
2019-04-30T14:16:49.683Z,12.97
2019-04-30T14:19:19.616Z,15.00
2019-04-30T14:21:49.569Z,13.83
2019-04-30T14:24:19.305Z,12.23
2019-04-30T14:26:49.148Z,12.53
2019-04-30T14:29:18.383Z,11.97
2019-04-30T14:31:48.786Z,11.83
2019-04-30T14:34:18.647Z,11.40
2019-04-30T14:39:17.090Z,11.43
2019-04-30T14:41:49.300Z,13.48
2019-04-30T14:44:22.636Z,14.07
2019-04-30T14:47:11.516Z,14.13
2019-04-30T14:50:05.271Z,13.77
2019-04-30T14:52:40.337Z,13.53
2019-04-30T14:55:24.409Z,13.65
2019-04-30T14:58:12.637Z,12.20
2019-04-30T15:01:12.780Z,11.90
2019-04-30T15:03:42.142Z,13.70
2019-04-30T15:06:11.370Z,11.70
2019-04-30T15:08:40.583Z,13.90
2019-04-30T15:11:09.904Z,13.08
2019-04-30T15:13:39.508Z,12.10
2019-04-30T15:16:08.992Z,12.45
2019-04-30T15:18:38.851Z,12.60
2019-04-30T15:21:09.603Z,12.85
2019-04-30T15:24:01.649Z,13.22
2019-04-30T15:26:31.336Z,12.50
2019-04-30T15:29:00.630Z,12.95
2019-04-30T15:31:29.885Z,12.35
2019-04-30T15:34:19.220Z,13.75
2019-04-30T15:36:49.237Z,13.15
2019-04-30T15:39:35.545Z,11.80
2019-04-30T15:42:05.066Z,12.57
2019-04-30T15:44:40.308Z,12.50
2019-04-30T15:47:06.225Z,13.88
2019-04-30T15:49:35.662Z,14.10
2019-04-30T15:52:05.636Z,12.87
2019-04-30T15:54:34.854Z,11.22
2019-04-30T15:57:04.362Z,13.48
2019-04-30T15:59:37.257Z,13.68
2019-04-30T16:02:28.744Z,12.25
2019-04-30T16:05:17.274Z,9.93
2019-04-30T16:07:56.362Z,11.70
2019-04-30T16:10:47.893Z,11.90
2019-04-30T16:13:19.871Z,11.48
2019-04-30T16:15:49.369Z,11.95
2019-04-30T16:18:19.554Z,12.65
2019-04-30T16:20:49.892Z,12.03
2019-04-30T16:23:19.277Z,13.72
2019-04-30T16:25:48.562Z,12.23
2019-04-30T16:28:19.576Z,14.43
2019-04-30T16:30:48.880Z,14.33
2019-04-30T16:33:19.461Z,14.10
2019-04-30T16:35:51.038Z,15.35
2019-04-30T16:38:20.919Z,14.38
2019-04-30T16:40:50.382Z,15.08
2019-04-30T16:43:20.349Z,12.13
2019-04-30T16:45:49.758Z,15.38
2019-04-30T16:48:19.463Z,12.35
2019-04-30T16:50:51.274Z,14.90
2019-04-30T16:53:19.957Z,14.23
2019-04-30T16:55:50.602Z,14.25
2019-04-30T16:58:19.914Z,12.33
2019-04-30T17:00:49.424Z,14.60
2019-04-30T17:03:28.837Z,13.95
2019-04-30T17:06:04.193Z,14.43
2019-04-30T17:08:40.947Z,14.73
2019-04-30T17:11:21.470Z,14.70
2019-04-30T17:13:56.932Z,12.88
2019-04-30T17:16:26.280Z,11.43
2019-04-30T17:18:55.501Z,11.65
2019-04-30T17:21:24.739Z,11.85
2019-04-30T17:23:54.040Z,11.93
2019-04-30T17:26:23.347Z,10.70
2019-04-30T17:28:52.539Z,13.45
2019-04-30T17:31:21.804Z,11.93
2019-04-30T17:33:51.066Z,14.15
2019-04-30T17:36:20.381Z,12.70
2019-04-30T17:38:49.645Z,13.20
2019-04-30T17:41:18.982Z,12.53
2019-04-30T17:43:49.553Z,15.07
2019-04-30T17:46:20.223Z,18.60
2019-04-30T17:48:49.630Z,27.25
2019-04-30T17:51:19.112Z,38.60
2019-04-30T17:54:06.051Z,26.25
2019-04-30T17:56:35.288Z,14.27
2019-04-30T17:59:04.487Z,11.93
2019-04-30T18:01:33.948Z,10.95
2019-04-30T18:04:03.233Z,10.95
2019-04-30T18:06:32.506Z,10.82
2019-04-30T18:09:01.792Z,14.07
2019-04-30T18:11:31.103Z,15.10
2019-04-30T18:14:00.333Z,16.27
2019-04-30T18:16:29.536Z,15.08
2019-04-30T18:19:11.433Z,14.38
2019-04-30T18:21:53.392Z,13.38
2019-04-30T18:24:30.089Z,11.83
2019-04-30T18:27:20.952Z,11.90
2019-04-30T18:29:49.320Z,17.37
2019-04-30T18:32:19.874Z,17.65
2019-04-30T18:34:49.194Z,17.37
2019-04-30T18:37:18.941Z,12.93
2019-04-30T18:42:16.846Z,12.30
2019-04-30T18:44:46.181Z,14.27
2019-04-30T18:47:15.416Z,11.90
2019-04-30T18:49:44.686Z,14.63
2019-04-30T18:52:14.034Z,15.17
2019-04-30T18:54:43.672Z,15.10
2019-04-30T18:57:13.003Z,12.60
2019-04-30T18:59:42.489Z,11.48
2019-04-30T19:02:13.530Z,13.77
2019-04-30T19:04:42.792Z,12.73
2019-04-30T19:07:22.233Z,12.75
2019-04-30T19:10:02.016Z,12.45
2019-04-30T19:12:48.988Z,12.30
2019-04-30T19:16:18.014Z,11.90
2019-04-30T19:18:39.396Z,14.40
2019-04-30T19:21:09.194Z,16.32
2019-04-30T19:23:39.031Z,15.87
2019-04-30T19:26:08.469Z,12.57
2019-04-30T19:28:38.697Z,15.45
2019-04-30T19:31:09.222Z,16.35
2019-04-30T19:33:39.026Z,13.53
2019-04-30T19:36:09.781Z,14.63
2019-04-30T19:38:39.412Z,14.43
2019-04-30T19:41:10.754Z,13.83
2019-04-30T19:43:39.769Z,12.78
2019-04-30T19:46:09.265Z,12.33
2019-04-30T19:48:38.541Z,14.65
2019-04-30T19:51:08.844Z,13.40
2019-04-30T19:53:39.531Z,12.73
2019-04-30T19:56:09.223Z,12.93
2019-04-30T19:58:54.454Z,12.57
2019-04-30T20:01:09.743Z,12.23
2019-04-30T20:03:40.840Z,13.25
2019-04-30T20:06:10.815Z,10.70
2019-04-30T20:08:40.097Z,11.57
2019-04-30T20:11:09.361Z,12.37
2019-04-30T20:13:40.378Z,11.90
2019-04-30T20:16:09.819Z,11.55
2019-04-30T20:18:39.282Z,14.03
2019-04-30T20:21:12.868Z,13.83
2019-04-30T20:23:42.204Z,10.68
2019-04-30T20:26:11.425Z,12.67
2019-04-30T20:28:42.520Z,13.58
2019-04-30T20:31:11.869Z,12.95
2019-04-30T20:33:41.039Z,12.43
2019-04-30T20:36:10.358Z,11.30
2019-04-30T20:38:58.607Z,12.35
2019-04-30T20:41:28.703Z,12.80
2019-04-30T20:43:58.010Z,11.93
2019-04-30T20:46:34.293Z,10.63
2019-04-30T20:48:59.356Z,13.75
2019-04-30T20:51:29.140Z,11.53
2019-04-30T20:53:59.230Z,12.05
2019-04-30T20:56:29.172Z,12.30
2019-04-30T20:59:04.109Z,15.13
2019-04-30T21:01:29.738Z,13.70
2019-04-30T21:03:58.989Z,17.23
2019-04-30T21:06:29.786Z,15.40
2019-04-30T21:08:59.045Z,17.12
2019-04-30T21:11:28.268Z,13.22
2019-04-30T21:13:59.113Z,12.43
2019-04-30T22:43:59.631Z,12.33
2019-04-30T22:46:29.389Z,16.37
2019-04-30T22:48:58.645Z,20.97
2019-04-30T22:51:27.842Z,17.13
2019-04-30T22:53:57.328Z,15.60
2019-04-30T22:56:26.660Z,18.50
2019-04-30T22:58:55.947Z,20.00
2019-04-30T23:01:34.477Z,16.67
2019-04-30T23:04:07.050Z,18.33
2019-04-30T23:06:36.360Z,16.27
2019-04-30T23:09:07.797Z,16.55
2019-04-30T23:11:36.982Z,21.47
2019-04-30T23:14:06.160Z,18.67
2019-04-30T23:16:35.369Z,18.10
2019-04-30T23:19:04.553Z,17.45
2019-04-30T23:21:33.781Z,18.17
2019-04-30T23:24:03.008Z,23.40
2019-04-30T23:26:32.190Z,23.38
2019-04-30T23:29:01.381Z,21.33
2019-04-30T23:31:30.642Z,21.37
2019-04-30T23:43:45.606Z,23.10
2019-04-30T23:46:15.060Z,20.73
2019-04-30T23:48:44.298Z,18.00
2019-04-30T23:51:13.537Z,15.50
2019-04-30T23:53:42.756Z,14.23
2019-04-30T23:56:11.953Z,12.75
2019-04-30T23:58:41.181Z,17.67
